Incline Creek, Nevada Weather observations

Data are for observation ending at time listed.
 Day   Time    Ave.   Ave.  Ave.  Vector   Max.   Stn.    Total    Solar   Ave.   Snow 
  of    of     Air    Rel.  Wind   Wind    Wind   Baro.  Precip.   Rad.    Soil   Depth
Year   Day     Temp.  Hum.  Speed  Dir.    Gust   Pres.                    Temp.       
2015   (PST)    F      %     mph   deg.    mph     mb.     in.     W/m2     F      in. 
---------------------------------------------------------------------------------------  
 242    9:30   59.8    52    7.5   127     14.7   999.0    0.00     587    999.0   83.9
 242    9:40   60.9    48    7.0   126     13.9   999.0    0.00     748    999.0   83.9
 242    9:50   61.6    45    6.6   126     12.9   999.0    0.00     759    999.0   83.9
 242   10:00   61.2    45    7.8   134     16.6   999.0    0.00     774    999.0    0.0
 242   10:10   62.2    44    5.5   122     11.8   999.0    0.00     788    999.0   83.9
 242   10:20   62.4    42    7.3   137     15.7   999.0    0.00     808    999.0    0.0
 242   10:30   62.4    41    7.1   133     12.4   999.0    0.00     826    999.0   83.9
 242   10:40   62.8    36    7.5   133     13.5   999.0    0.00     842    999.0   83.9
 242   10:50   63.1    36    8.3   124     15.3   999.0    0.00     856    999.0   83.9
 242   11:00   62.9    35    9.8   131     16.8   999.0    0.00     870    999.0   83.9
 242   11:10   63.8    33    7.4   119     16.0   999.0    0.00     880    999.0    0.0
 242   11:20   64.2    32    7.5   127     15.9   999.0    0.00     882    999.0   83.9
 242   11:30   64.2    32    8.1   124     17.5   999.0    0.00     893    999.0    0.0
 242   11:40   64.1    31    8.5   132     16.7   999.0    0.00     896    999.0    0.0
 242   11:50   64.0    32    8.3   128     18.8   999.0    0.00     902    999.0   83.9
 242   12:00   64.6    31    6.8   124     15.3   999.0    0.00     905    999.0    0.0
 242   12:10   65.1    29    8.3   124     16.0   999.0    0.00     902    999.0   83.9
 242   12:20   65.4    29    6.7   118     15.0   999.0    0.00     909    999.0    0.0
 242   12:30   65.6    28    7.9   119     16.7   999.0    0.00     903    999.0    0.0
 242   12:40   65.5    27    7.4   126     17.4   999.0    0.00     902    999.0    0.0
 242   12:50   65.4    27    8.1   126     17.8   999.0    0.00     908    999.0    0.0
 242   13:00   65.9    27    7.0   130     16.8   999.0    0.00     899    999.0    0.0
 242   13:10   65.6    27    8.2   136     13.6   999.0    0.00     900    999.0    0.0
 242   13:20   66.2    29    7.0   133     15.4   999.0    0.00     881    999.0    0.0
 242   13:30   66.1    28    6.7   134     14.4   999.0    0.00     865    999.0    0.0
 242   13:40   66.0    27    7.8   143     14.9   999.0    0.00     849    999.0    0.0
 242   13:50   66.0    26    7.8   134     14.0   999.0    0.00     839    999.0    0.0
 242   14:00   66.0    25    6.8   136     14.5   999.0    0.00     812    999.0    0.0
 242   14:10   65.9    28    8.0   138     16.2   999.0    0.00     787    999.0    0.0
 242   14:20   65.9    27    6.9   142     14.0   999.0    0.00     767    999.0    0.0
 242   14:30   66.4    24    6.3   127     13.0   999.0    0.00     742    999.0    0.0
 242   14:40   65.8    24    9.2   149     16.0   999.0    0.00     714    999.0    0.0
 242   14:50   65.4    25    8.2   140     15.5   999.0    0.00     682    999.0    0.0
 242   15:00   65.9    24    6.9   127     15.7   999.0    0.00     653    999.0    0.0
 242   15:10   66.0    22    7.3   132     14.4   999.0    0.00     626    999.0    0.0
 242   15:20   65.8    24    6.8   128     15.5   999.0    0.00     592    999.0    0.0
 242   15:30   65.6    24    7.0   127     17.2   999.0    0.00     565    999.0    0.0
 242   15:40   65.7    24    6.2   128     12.4   999.0    0.00     537    999.0    0.0
 242   15:50   65.7    24    5.3   136     10.8   999.0    0.00     505    999.0    0.0
 242   16:00   65.3    24    6.1   138     14.6   999.0    0.00     473    999.0    0.0
 242   16:10   65.8    23    4.6   144     12.0   999.0    0.00     441    999.0    0.0
 242   16:20   65.5    22    4.5   140     11.9   999.0    0.00     266    999.0    0.0
 242   16:30   65.8    22    4.0   121     12.3   999.0    0.00     323    999.0    0.0
 242   16:40   65.2    21    4.4   121     10.7   999.0    0.00     295    999.0    0.0
 242   16:50   64.3    21    4.9   137     11.5   999.0    0.00      71    999.0    0.0
 242   17:00   63.6    22    5.4   126     11.2   999.0    0.00      39    999.0    0.0
 242   17:10   63.2    24    4.9   118     10.4   999.0    0.00      36    999.0    0.0
 242   17:20   63.0    24    4.1   114     12.2   999.0    0.00      33    999.0    0.0
 242   17:30   62.5    23    4.5   133      9.8   999.0    0.00      30    999.0    0.0
 242   17:40   62.3    23    4.8   111     12.1   999.0    0.00      27    999.0    0.0
 242   17:50   61.9    25    4.2    96      9.8   999.0    0.00      24    999.0    0.0
 242   18:00   61.8    25    4.0   123     10.3   999.0    0.00      20    999.0    0.0
 242   18:10   61.5    26    3.1   107      5.9   999.0    0.00      14    999.0    0.0
 242   18:20   61.0    26    3.5    92      7.1   999.0    0.00       8    999.0    0.0
 242   18:30   60.0    27    2.2    64      5.3   999.0    0.00       4    999.0    0.0
 242   18:40   58.8    28    2.1   304      2.9   999.0    0.00       2    999.0    0.0
 242   18:50   57.4    29    1.9   318      2.8   999.0    0.00       1    999.0    0.0
 242   19:00   55.9    31    1.1   330      2.2   999.0    0.00       0    999.0    0.0
 242   19:10   54.9    32    0.9     6      2.5   999.0    0.00       0    999.0    0.0
 242   19:20   53.9    33    1.9    10      3.9   999.0    0.00       0    999.0    0.0
 242   19:30   53.0    34    1.3    17      3.1   999.0    0.00       0    999.0    0.0
 242   19:40   52.0    35    1.6    12      2.9   999.0    0.00       0    999.0    0.0
 242   19:50   51.6    35    1.8   358      3.0   999.0    0.00       0    999.0    0.0
 242   20:00   50.4    37    2.6    30      4.2   999.0    0.00       0    999.0    0.0
 242   20:10   49.2    38    1.0    42      1.8   999.0    0.00       0    999.0    0.0
 242   20:20   48.7    37    2.0    26      3.9   999.0    0.00       0    999.0    0.0
 242   20:30   48.5    34    2.6    14      3.7   999.0    0.00       0    999.0    0.0
 242   20:40   48.0    32    2.3    20      3.9   999.0    0.00       0    999.0    0.0
 242   20:50   47.6    29    2.1    25      3.1   999.0    0.00       0    999.0    0.0
 242   21:00   46.9    29    2.5    27      3.9   999.0    0.00       0    999.0    0.0
 242   21:10   46.3    28    1.6    34      2.1   999.0    0.00       0    999.0    0.0
 242   21:20   45.7    28    2.0    25      2.9   999.0    0.00       0    999.0    0.0
 242   21:30   45.5    28    2.0    21      2.9   999.0    0.00       0    999.0    0.0
 242   21:40   45.3    30    1.8    20      2.9   999.0    0.00       0    999.0    0.0
 242   21:50   45.2    29    2.3    18      3.6   999.0    0.00       0    999.0    0.0
 242   22:00   45.0    30    2.3    15      3.5   999.0    0.00       0    999.0    0.0
 242   22:10   44.7    30    2.1    24      2.6   999.0    0.00       0    999.0    0.0
 242   22:20   44.5    31    1.9    24      3.2   999.0    0.00       0    999.0    0.0
 242   22:30   44.4    32    2.3    17      3.6   999.0    0.00       0    999.0    0.0
 242   22:40   44.2    33    2.0    23      3.3   999.0    0.00       0    999.0    0.0
 242   22:50   44.0    34    1.8    22      2.7   999.0    0.00       0    999.0    0.0
 242   23:00   43.9    35    1.9    29      2.9   999.0    0.00       0    999.0    0.0
 242   23:10   43.8    36    1.9    30      2.9   999.0    0.00       0    999.0    0.0
 242   23:20   43.7    36    2.4    25      3.8   999.0    0.00       0    999.0    0.0
 242   23:30   43.4    35    2.2    23      3.1   999.0    0.00       0    999.0    0.0
 242   23:40   43.4    35    2.8    18      3.9   999.0    0.00       0    999.0    0.0
 242   23:50   43.5    34    3.3    14      5.0   999.0    0.00       0    999.0    0.0
 243    0:00   43.8    34    2.8     7      4.4   999.0    0.00       0    999.0    0.0
 243    0:10   43.5    34    2.6    18      3.8   999.0    0.00       0    999.0    0.0
 243    0:20   43.4    35    2.9     8      4.5   999.0    0.00       0    999.0    0.0
 243    0:30   43.4    35    2.6    22      4.2   999.0    0.00       0    999.0    0.0
 243    0:40   42.6    37    2.1    23      3.2   999.0    0.00       0    999.0    0.0
 243    0:50   42.7    37    2.1     8      4.2   999.0    0.00       0    999.0    0.0
 243    1:00   43.2    35    2.8     7      4.2   999.0    0.00       0    999.0    0.0
 243    1:10   43.5    34    2.4   356      4.9   999.0    0.00       0    999.0    0.0
 243    1:20   43.3    35    2.5    26      4.5   999.0    0.00       0    999.0    0.0
 243    1:30   42.5    38    1.5    24      2.5   999.0    0.00       0    999.0    0.0
 243    1:40   42.3    40    1.7    21      2.7   999.0    0.00       0    999.0    0.0
 243    1:50   42.7    40    2.5    17      3.9   999.0    0.00       0    999.0    0.0
 243    2:00   42.9    41    2.1    17      4.5   999.0    0.00       0    999.0    0.0
 243    2:10   43.0    41    1.9    17      3.4   999.0    0.00       0    999.0    0.0
 243    2:20   43.0    41    2.0    26      3.1   999.0    0.00       0    999.0    0.0
 243    2:30   43.0    41    2.2    12      3.6   999.0    0.00       0    999.0    0.0
 243    2:40   42.6    43    2.2    16      4.5   999.0    0.00       0    999.0    0.0
 243    2:50   43.1    43    2.9   357      5.3   999.0    0.00       0    999.0    0.0
 243    3:00   42.8    42    2.1    24      3.3   999.0    0.00       0    999.0    0.0
 243    3:10   42.2    45    2.1    26      3.7   999.0    0.00       0    999.0    0.0
 243    3:20   42.6    46    2.0     5      3.8   999.0    0.00       0    999.0    0.0
 243    3:30   42.7    47    2.8    27      4.4   999.0    0.00       0    999.0    0.0
 243    3:40   42.4    50    2.6    29      4.7   999.0    0.00       0    999.0    0.0
 243    3:50   42.5    51    2.2    25      3.3   999.0    0.00       0    999.0    0.0
 243    4:00   42.7    53    2.4     9      4.3   999.0    0.00       0    999.0    0.0
 243    4:10   43.1    54    2.1    20      3.4   999.0    0.00       0    999.0    0.0
 243    4:20   42.7    56    2.4    18      3.4   999.0    0.00       0    999.0    0.0
 243    4:30   43.1    56    2.3    12      3.9   999.0    0.00       0    999.0    0.0
 243    4:40   42.9    56    1.8    17      3.6   999.0    0.00       0    999.0    0.0
 243    4:50   42.8    56    2.7    28      3.9   999.0    0.00       0    999.0    0.0
 243    5:00   42.7    56    2.1    29      3.0   999.0    0.00       0    999.0    0.0
 243    5:10   42.6    56    2.0    28      3.1   999.0    0.00       0    999.0    0.0
 243    5:20   42.6    55    2.5    20      4.5   999.0    0.00       1    999.0    0.0
 243    5:30   42.6    55    2.5    28      3.4   999.0    0.00       2    999.0    0.0
 243    5:40   42.4    55    2.3    29      3.4   999.0    0.00       6    999.0    0.0
 243    5:50   42.4    54    2.0     7      3.6   999.0    0.00      12    999.0    0.0
 243    6:00   42.6    54    2.0    26      3.0   999.0    0.00      16    999.0    0.0
 243    6:10   42.7    55    1.9    22      2.9   999.0    0.00      20    999.0    0.0
 243    6:20   43.2    54    2.2    26      3.7   999.0    0.00      23    999.0    0.0
 243    6:30   42.9    56    1.7    22      2.7   999.0    0.00      26    999.0    0.0
 243    6:40   43.0    57    1.7    23      2.5   999.0    0.00      28    999.0    0.0
 243    6:50   43.0    58    1.8    21      3.0   999.0    0.00      32    999.0    0.0
 243    7:00   43.9    58    2.0    24      2.5   999.0    0.00     186    999.0    0.0
 243    7:10   46.2    54    1.5    22      2.6   999.0    0.00     282    999.0    0.0
 243    7:20   48.3    50    1.9    22      2.8   999.0    0.00     316    999.0   83.9
 243    7:30   50.9    46    1.5    32      3.2   999.0    0.00     348    999.0    0.0
 243    7:40   53.9    50    1.6    37      2.9   999.0    0.00     380    999.0    0.0
 243    7:50   56.1    55    1.2    86      2.3   999.0    0.00     413    999.0   83.9
 243    8:00   57.6    51    1.0    65      2.1   999.0    0.00     449    999.0    0.0
 243    8:10   58.0    56    3.5   145      7.5   999.0    0.00     483    999.0   83.9
 243    8:20   57.6    58    4.5   150      6.6   999.0    0.00     513    999.0   83.9
 243    8:30   58.0    58    4.1   151      6.3   999.0    0.00     545    999.0   83.9
 243    8:40   59.1    57    4.5   150      8.3   999.0    0.00     577    999.0   83.9
 243    8:50   59.5    56    4.4   153      7.0   999.0    0.00     608    999.0   83.9
 243    9:00   60.1    55    4.7   160      8.2   999.0    0.00     636    999.0   83.9
 243    9:10   60.4    55    5.4   161      8.4   999.0    0.00     663    999.0   83.9
 243    9:20   60.8    55    5.2   153      7.8   999.0    0.00     691    999.0    0.0

Return to Incline Creek graphs page.


Western Regional Climate Center,wrcc@dri.edu